createdAt,value
2023-03-23T00:00:22.375Z,995.7
2023-03-23T00:01:23.397Z,995.6
2023-03-23T00:02:24.370Z,995.7
2023-03-23T00:03:25.396Z,995.6
2023-03-23T00:04:26.376Z,995.6
2023-03-23T00:05:27.395Z,995.5
2023-03-23T00:06:28.376Z,995.6
2023-03-23T00:07:29.395Z,995.6
2023-03-23T00:08:30.437Z,995.6
2023-03-23T00:09:31.417Z,995.6
2023-03-23T00:10:32.423Z,995.7
2023-03-23T00:11:33.396Z,995.7
2023-03-23T00:12:34.435Z,995.7
2023-03-23T00:13:35.395Z,995.7
2023-03-23T00:14:36.390Z,995.7
2023-03-23T00:15:37.620Z,995.7
2023-03-23T00:16:38.374Z,995.7
2023-03-23T00:17:39.435Z,995.6
2023-03-23T00:18:40.404Z,995.7
2023-03-23T00:19:41.462Z,995.7
2023-03-23T00:20:42.344Z,995.6
2023-03-23T00:21:43.350Z,995.6
2023-03-23T00:22:44.399Z,995.6
2023-03-23T00:23:45.395Z,995.7
2023-03-23T00:24:46.510Z,995.7
2023-03-23T00:25:47.407Z,995.4
2023-03-23T00:26:48.504Z,995.5
2023-03-23T00:27:49.367Z,995.3
2023-03-23T00:28:50.428Z,995.6
2023-03-23T00:29:51.410Z,995.6
2023-03-23T00:30:52.396Z,995.6
2023-03-23T00:31:53.375Z,995.5
2023-03-23T00:32:54.359Z,995.6
2023-03-23T00:33:55.442Z,995.5
2023-03-23T00:34:56.757Z,995.5
2023-03-23T00:35:57.405Z,995.5
2023-03-23T00:36:58.401Z,995.6
2023-03-23T00:37:59.405Z,995.6
2023-03-23T00:39:00.400Z,995.6
2023-03-23T00:40:01.438Z,995.6
2023-03-23T00:41:02.379Z,995.6
2023-03-23T00:42:03.444Z,995.6
2023-03-23T00:43:04.423Z,995.5
2023-03-23T00:44:05.419Z,995.7
2023-03-23T00:45:06.387Z,995.6
2023-03-23T00:46:07.455Z,995.6
2023-03-23T00:47:08.478Z,995.6
2023-03-23T00:48:09.403Z,995.6
2023-03-23T00:49:10.485Z,995.6
2023-03-23T00:50:11.468Z,995.5
2023-03-23T00:51:12.418Z,995.6
2023-03-23T00:52:13.499Z,995.6
2023-03-23T00:53:14.417Z,995.5
2023-03-23T00:54:15.398Z,995.5
2023-03-23T00:55:16.420Z,995.5
2023-03-23T00:56:17.419Z,995.5
2023-03-23T00:57:18.443Z,995.5
2023-03-23T00:58:19.438Z,995.5
2023-03-23T00:59:20.467Z,995.5
2023-03-23T01:00:21.382Z,995.5
2023-03-23T01:01:22.400Z,995.5
2023-03-23T01:02:23.364Z,995.5
2023-03-23T01:03:24.399Z,995.4
2023-03-23T01:04:25.419Z,995.4
2023-03-23T01:05:26.377Z,995.4
2023-03-23T01:06:27.398Z,995.4
2023-03-23T01:07:28.380Z,995.4
2023-03-23T01:08:29.441Z,995.4
2023-03-23T01:09:30.458Z,995.4
2023-03-23T01:10:31.784Z,995.4
2023-03-23T01:11:32.424Z,995.4
2023-03-23T01:12:33.400Z,995.4
2023-03-23T01:13:34.466Z,995.3
2023-03-23T01:14:35.440Z,995.3
2023-03-23T01:15:36.441Z,995.3
2023-03-23T01:16:37.456Z,995.3
2023-03-23T01:17:38.497Z,995.3
2023-03-23T01:18:39.436Z,995.3
2023-03-23T01:19:40.457Z,995.3
2023-03-23T01:20:41.456Z,995.3
2023-03-23T01:21:42.416Z,995.3
2023-03-23T01:22:43.396Z,995.3
2023-03-23T01:23:44.416Z,995.3
2023-03-23T01:24:45.437Z,995.3
2023-03-23T01:25:46.389Z,995.3
2023-03-23T01:26:47.499Z,995.3
2023-03-23T01:27:48.483Z,995.3
2023-03-23T01:28:49.448Z,995.2
2023-03-23T01:29:50.438Z,995.3
2023-03-23T01:30:51.387Z,995.3
2023-03-23T01:31:52.397Z,995.2
2023-03-23T01:32:53.504Z,995.2
2023-03-23T01:33:54.416Z,995.2
2023-03-23T01:34:55.408Z,995.2
2023-03-23T01:35:56.897Z,995.2
2023-03-23T01:36:58.459Z,995.2
2023-03-23T01:37:59.482Z,995.2
2023-03-23T01:39:00.436Z,995.2
2023-03-23T01:40:01.456Z,995.2
2023-03-23T01:41:02.418Z,995.2
2023-03-23T01:42:03.399Z,995.1
2023-03-23T01:43:04.426Z,995.2
2023-03-23T01:44:05.449Z,995.1
2023-03-23T01:45:06.503Z,995.2
2023-03-23T01:46:07.438Z,995.1
2023-03-23T01:47:08.427Z,995.2
2023-03-23T01:48:09.480Z,995.2
2023-03-23T01:49:10.419Z,995.1
2023-03-23T01:50:11.569Z,995.1
2023-03-23T01:51:12.460Z,995.1
2023-03-23T01:52:13.459Z,995.1
2023-03-23T01:53:14.459Z,995.1
2023-03-23T01:54:15.420Z,995.1
2023-03-23T01:55:16.475Z,995.1
2023-03-23T01:56:17.420Z,995
2023-03-23T01:57:18.469Z,995
2023-03-23T01:58:19.452Z,995.1
2023-03-23T01:59:20.442Z,995.1
2023-03-23T02:00:21.504Z,995.1
2023-03-23T02:01:22.492Z,995
2023-03-23T02:02:23.474Z,995
2023-03-23T02:03:24.462Z,995
2023-03-23T02:04:25.470Z,995
2023-03-23T02:05:26.442Z,995
2023-03-23T02:06:27.441Z,995
2023-03-23T02:07:28.484Z,994.9
2023-03-23T02:08:29.441Z,994.9
2023-03-23T02:09:30.450Z,994.9
2023-03-23T02:10:31.480Z,994.9
2023-03-23T02:11:32.461Z,994.9
2023-03-23T02:12:33.460Z,994.9
2023-03-23T02:13:34.534Z,994.9
2023-03-23T02:14:35.462Z,994.9
2023-03-23T02:15:36.441Z,994.8
2023-03-23T02:16:37.548Z,994.9
2023-03-23T02:17:38.518Z,994.9
2023-03-23T02:18:39.468Z,994.9
2023-03-23T02:19:40.444Z,994.9
2023-03-23T02:20:41.440Z,994.8
2023-03-23T02:21:42.563Z,994.8
2023-03-23T02:22:43.443Z,994.8
2023-03-23T02:23:44.424Z,994.8
2023-03-23T02:24:45.461Z,994.8
2023-03-23T02:25:46.519Z,994.8
2023-03-23T02:26:47.498Z,994.8
2023-03-23T02:27:48.482Z,994.8
2023-03-23T02:28:49.508Z,994.7
2023-03-23T02:29:50.461Z,994.9
2023-03-23T02:30:51.445Z,994.8
2023-03-23T02:31:52.460Z,994.8
2023-03-23T02:32:53.538Z,994.8
2023-03-23T02:33:54.521Z,994.8
2023-03-23T02:34:55.446Z,994.8
2023-03-23T02:35:57.029Z,994.8
2023-03-23T02:36:58.482Z,994.8
2023-03-23T02:37:59.542Z,994.8
2023-03-23T02:39:00.502Z,994.8
2023-03-23T02:40:01.500Z,994.8
2023-03-23T02:41:02.462Z,994.7
2023-03-23T02:42:03.564Z,994.8
2023-03-23T02:43:04.560Z,994.8
2023-03-23T02:44:05.580Z,994.8
2023-03-23T02:45:06.515Z,994.8
2023-03-23T02:46:07.469Z,994.8
2023-03-23T02:47:08.497Z,994.8
2023-03-23T02:48:09.495Z,994.8
2023-03-23T02:49:10.477Z,994.8
2023-03-23T02:50:11.442Z,994.8
2023-03-23T02:51:12.459Z,994.7
2023-03-23T02:52:13.485Z,994.8
2023-03-23T02:53:14.517Z,994.7
2023-03-23T02:54:15.527Z,994.7
2023-03-23T02:55:16.463Z,994.7
2023-03-23T02:56:17.462Z,994.7
2023-03-23T02:57:18.504Z,994.7
2023-03-23T02:58:19.437Z,994.7
2023-03-23T02:59:20.472Z,994.7
2023-03-23T03:00:21.443Z,994.7
2023-03-23T03:01:22.498Z,994.7
2023-03-23T03:02:23.478Z,994.7
2023-03-23T03:03:24.455Z,994.8
2023-03-23T03:04:25.441Z,994.7
2023-03-23T03:05:26.503Z,994.8
2023-03-23T03:06:27.494Z,994.7
2023-03-23T03:07:28.476Z,994.7
2023-03-23T03:08:29.517Z,994.7
2023-03-23T03:09:30.485Z,994.6
2023-03-23T03:10:31.475Z,994.7
2023-03-23T03:11:32.504Z,994.6
2023-03-23T03:12:33.479Z,994.6
2023-03-23T03:13:34.503Z,994.6
2023-03-23T03:14:35.467Z,994.6
2023-03-23T03:15:36.506Z,994.6
2023-03-23T03:16:37.472Z,994.6
2023-03-23T03:17:38.496Z,994.7
2023-03-23T03:18:39.498Z,994.6
2023-03-23T03:19:40.478Z,994.6
2023-03-23T03:20:41.596Z,994.6
2023-03-23T03:21:42.477Z,994.6
2023-03-23T03:22:43.506Z,994.6
2023-03-23T03:23:44.517Z,994.5
2023-03-23T03:24:45.518Z,994.6
2023-03-23T03:25:46.511Z,994.6
2023-03-23T03:26:47.507Z,994.6
2023-03-23T03:27:48.517Z,994.6
2023-03-23T03:28:49.512Z,994.6
2023-03-23T03:29:50.445Z,994.6
2023-03-23T03:30:51.599Z,994.5
2023-03-23T03:31:52.460Z,994.5
2023-03-23T03:32:53.508Z,994.5
2023-03-23T03:33:54.499Z,994.5
2023-03-23T03:34:55.485Z,994.5
2023-03-23T03:35:56.497Z,994.5
2023-03-23T03:36:57.463Z,994.5
2023-03-23T03:37:58.509Z,994.5
2023-03-23T03:38:59.538Z,994.5
2023-03-23T03:40:00.509Z,994.5
2023-03-23T03:41:01.461Z,994.5
2023-03-23T03:42:02.478Z,994.5
2023-03-23T03:43:03.504Z,994.5
2023-03-23T03:44:04.515Z,994.4
2023-03-23T03:45:05.575Z,994.4
2023-03-23T03:46:06.519Z,994.4
2023-03-23T03:47:07.460Z,994.5
2023-03-23T03:48:08.524Z,994.4
2023-03-23T03:49:09.560Z,994.4
2023-03-23T03:50:10.530Z,994.4
2023-03-23T03:51:11.528Z,994.4
2023-03-23T03:52:12.508Z,994.4
2023-03-23T03:53:13.469Z,994.4
2023-03-23T03:54:14.538Z,994.4
2023-03-23T03:55:15.548Z,994.4
2023-03-23T03:56:16.538Z,994.4
2023-03-23T03:57:17.525Z,994.4
2023-03-23T03:58:18.519Z,994.4
2023-03-23T03:59:21.240Z,994.4
2023-03-23T04:00:20.543Z,994.4
2023-03-23T04:01:21.499Z,994.4
2023-03-23T04:02:22.523Z,994.4
2023-03-23T04:03:23.519Z,994.4
2023-03-23T04:04:24.615Z,994.4
2023-03-23T04:05:25.590Z,994.4
2023-03-23T04:06:26.520Z,994.4
2023-03-23T04:07:27.520Z,994.5
2023-03-23T04:08:28.549Z,994.5
2023-03-23T04:09:29.498Z,994.4
2023-03-23T04:10:32.560Z,994.4
2023-03-23T04:11:32.391Z,994.4
2023-03-23T04:12:32.539Z,994.5
2023-03-23T04:13:33.539Z,994.4
2023-03-23T04:14:34.582Z,994.4
2023-03-23T04:15:35.544Z,994.5
2023-03-23T04:16:36.520Z,994.4
2023-03-23T04:17:37.520Z,994.5
2023-03-23T04:18:38.520Z,994.5
2023-03-23T04:19:39.539Z,994.5
2023-03-23T04:20:40.542Z,994.4
2023-03-23T04:21:41.520Z,994.4
2023-03-23T04:22:42.540Z,994.4
2023-03-23T04:23:43.541Z,994.5
2023-03-23T04:24:55.844Z,994.4
2023-03-23T04:25:45.527Z,994.4
2023-03-23T04:26:46.519Z,994.4
2023-03-23T04:27:47.547Z,993.8
2023-03-23T04:28:48.559Z,994.3
2023-03-23T04:29:49.521Z,994.4
2023-03-23T04:30:50.665Z,994.5
2023-03-23T04:31:51.541Z,994.5
2023-03-23T04:32:52.616Z,994.2
2023-03-23T04:33:57.678Z,994.4
2023-03-23T04:34:54.500Z,994.4
2023-03-23T04:35:55.576Z,994.4
2023-03-23T04:36:57.323Z,994.4
2023-03-23T04:37:57.599Z,994.3
2023-03-23T04:38:58.492Z,994.4
2023-03-23T04:39:59.542Z,994.3
2023-03-23T04:41:00.539Z,994.4
2023-03-23T04:42:01.573Z,994.4
2023-03-23T04:43:02.600Z,994.4
2023-03-23T04:44:03.540Z,994.4
2023-03-23T04:45:04.640Z,994.4
2023-03-23T04:46:05.533Z,994.4
2023-03-23T04:47:06.499Z,994.5
2023-03-23T04:48:07.545Z,994.4
2023-03-23T04:49:08.548Z,994.4
2023-03-23T04:50:09.600Z,994.4
2023-03-23T04:51:10.547Z,994.4
2023-03-23T04:52:11.560Z,994.4
2023-03-23T04:53:12.545Z,994.4
2023-03-23T04:54:13.531Z,994.4
2023-03-23T04:55:14.558Z,994.4
2023-03-23T04:56:15.542Z,994.3
2023-03-23T04:57:16.549Z,994.3
2023-03-23T04:58:17.501Z,994.2
2023-03-23T04:59:18.541Z,994.2
2023-03-23T05:00:19.600Z,994.2
2023-03-23T05:01:20.588Z,994.2
2023-03-23T05:02:21.604Z,994.2
2023-03-23T05:03:22.541Z,994.2
2023-03-23T05:04:23.547Z,994.2
2023-03-23T05:05:24.599Z,994.2
2023-03-23T05:06:25.582Z,994.2
2023-03-23T05:07:26.600Z,994.2
2023-03-23T05:08:27.552Z,994.2
2023-03-23T05:09:28.540Z,994.2
2023-03-23T05:10:29.600Z,994.2
2023-03-23T05:11:30.579Z,994.3
2023-03-23T05:12:31.616Z,994.2
2023-03-23T05:13:32.540Z,994.2
2023-03-23T05:14:33.560Z,994.3
2023-03-23T05:15:34.596Z,994.2
2023-03-23T05:16:35.585Z,994.2
2023-03-23T05:17:36.544Z,994.2
2023-03-23T05:18:37.580Z,994.3
2023-03-23T05:19:38.593Z,994.2
2023-03-23T05:20:39.620Z,994.2
2023-03-23T05:21:40.580Z,994.3
2023-03-23T05:22:41.538Z,994.2
2023-03-23T05:23:42.520Z,994.2
2023-03-23T05:24:43.580Z,994.3
2023-03-23T05:25:44.576Z,994.2
2023-03-23T05:26:45.546Z,994.2
2023-03-23T05:27:46.568Z,994.2
2023-03-23T05:28:47.510Z,994.2
2023-03-23T05:29:48.564Z,994.2
2023-03-23T05:30:49.571Z,994.2
2023-03-23T05:31:53.314Z,993.7
2023-03-23T05:32:54.580Z,994.1
2023-03-23T05:33:55.561Z,994.1
2023-03-23T05:34:56.578Z,994.2
2023-03-23T05:35:57.631Z,994.2
2023-03-23T05:36:58.579Z,994.1
2023-03-23T05:37:59.513Z,994.1
2023-03-23T05:39:00.551Z,994.2
2023-03-23T05:40:01.587Z,994.2
2023-03-23T05:41:02.615Z,994.2
2023-03-23T05:42:03.572Z,994.2
2023-03-23T05:43:04.596Z,994.2
2023-03-23T05:44:05.560Z,994.2
2023-03-23T05:45:06.556Z,994.2
2023-03-23T05:46:07.558Z,993.9
2023-03-23T05:47:08.581Z,994.2
2023-03-23T05:48:09.524Z,994.2
2023-03-23T05:49:10.575Z,994.2
2023-03-23T05:50:11.615Z,994.3
2023-03-23T05:51:12.624Z,994.2
2023-03-23T05:52:13.556Z,994.2
2023-03-23T05:53:14.581Z,994.2
2023-03-23T05:54:15.557Z,994.3
2023-03-23T05:55:16.585Z,994.3
2023-03-23T05:56:17.611Z,994.2
2023-03-23T05:57:18.579Z,994.3
2023-03-23T05:58:19.596Z,994.2
2023-03-23T05:59:20.577Z,994.2
2023-03-23T06:00:21.535Z,994.2
2023-03-23T06:01:22.569Z,994.3
2023-03-23T06:02:23.590Z,994.2
2023-03-23T06:03:24.625Z,994.2
2023-03-23T06:04:25.594Z,994.2
2023-03-23T06:05:26.598Z,994.2
2023-03-23T06:06:27.541Z,994.2
2023-03-23T06:07:28.670Z,994.2
2023-03-23T06:08:29.595Z,994.2
2023-03-23T06:09:30.532Z,994.1
2023-03-23T06:10:31.577Z,994.1
2023-03-23T06:11:32.562Z,994.1
2023-03-23T06:12:33.638Z,994.1
2023-03-23T06:13:34.578Z,994.1
2023-03-23T06:14:35.592Z,994.1
2023-03-23T06:15:36.539Z,994.1
2023-03-23T06:16:37.597Z,994.1
2023-03-23T06:17:38.585Z,994.3
2023-03-23T06:18:39.578Z,994.1
2023-03-23T06:19:40.589Z,994.1
2023-03-23T06:20:41.556Z,994.1
2023-03-23T06:21:42.836Z,994.1
2023-03-23T06:22:43.540Z,994.1
2023-03-23T06:23:44.571Z,994.1
2023-03-23T06:24:45.567Z,994
2023-03-23T06:25:46.780Z,994.1
2023-03-23T06:26:47.601Z,994.1
2023-03-23T06:27:48.618Z,994
2023-03-23T06:28:49.590Z,994
2023-03-23T06:29:50.638Z,994.1
2023-03-23T06:30:51.588Z,994
2023-03-23T06:31:52.646Z,994
2023-03-23T06:32:53.666Z,994.1
2023-03-23T06:33:54.624Z,994.1
2023-03-23T06:34:55.564Z,994
2023-03-23T06:35:56.561Z,994
2023-03-23T06:36:57.598Z,994
2023-03-23T06:37:58.583Z,994
2023-03-23T06:38:59.583Z,994
2023-03-23T06:40:00.651Z,994
2023-03-23T06:41:01.596Z,994
2023-03-23T06:42:02.599Z,994
2023-03-23T06:43:03.571Z,994
2023-03-23T06:44:04.598Z,994
2023-03-23T06:45:05.563Z,994
2023-03-23T06:46:06.640Z,994
2023-03-23T06:47:07.604Z,994
2023-03-23T06:48:08.616Z,994
2023-03-23T06:49:09.631Z,994.1
2023-03-23T06:50:10.590Z,994.1
2023-03-23T06:51:11.599Z,994
2023-03-23T06:52:12.645Z,994
2023-03-23T06:53:13.643Z,994
2023-03-23T06:54:14.562Z,994
2023-03-23T06:55:15.650Z,993.9
2023-03-23T06:56:16.603Z,993.9
2023-03-23T06:57:17.586Z,993.8
2023-03-23T06:58:18.623Z,993.9
2023-03-23T06:59:19.587Z,993.9
2023-03-23T07:00:20.682Z,993.9
2023-03-23T07:01:21.654Z,993.9
2023-03-23T07:02:22.547Z,994
2023-03-23T07:03:23.770Z,993.9
2023-03-23T07:04:24.593Z,993.9
2023-03-23T07:05:25.610Z,993.9
2023-03-23T07:06:26.624Z,993.9
2023-03-23T07:07:27.608Z,993.9
2023-03-23T07:08:28.574Z,993.9
2023-03-23T07:09:41.200Z,994
2023-03-23T07:10:30.546Z,994
2023-03-23T07:11:31.684Z,994
2023-03-23T07:12:32.621Z,994
2023-03-23T07:13:33.564Z,994
2023-03-23T07:14:34.700Z,994
2023-03-23T07:15:35.621Z,994.1
2023-03-23T07:16:36.618Z,994.1
2023-03-23T07:17:37.634Z,994
2023-03-23T07:18:38.675Z,994
2023-03-23T07:19:39.679Z,994
2023-03-23T07:20:40.599Z,994
2023-03-23T07:21:41.650Z,994
2023-03-23T07:22:42.776Z,994
2023-03-23T07:23:43.620Z,994
2023-03-23T07:24:44.620Z,994
2023-03-23T07:25:45.591Z,994
2023-03-23T07:26:46.623Z,993.9
2023-03-23T07:27:47.624Z,993.9
2023-03-23T07:28:48.682Z,993.9
2023-03-23T07:29:49.605Z,993.9
2023-03-23T07:30:50.624Z,993.9
2023-03-23T07:31:51.649Z,993.9
2023-03-23T07:32:52.596Z,993.9
2023-03-23T07:33:53.644Z,993.9
2023-03-23T07:34:54.578Z,993.9
2023-03-23T07:35:55.748Z,993.9
2023-03-23T07:36:56.698Z,993.9
2023-03-23T07:37:57.664Z,994
2023-03-23T07:38:59.158Z,994
2023-03-23T07:40:00.675Z,993.9
2023-03-23T07:41:01.631Z,993.9
2023-03-23T07:42:02.624Z,993.9
2023-03-23T07:43:03.620Z,993.9
2023-03-23T07:44:04.619Z,993.9
2023-03-23T07:45:05.621Z,993.9
2023-03-23T07:46:06.647Z,993.9
2023-03-23T07:47:07.695Z,993.9
2023-03-23T07:48:15.851Z,993.9
2023-03-23T07:49:09.631Z,993.9
2023-03-23T07:50:10.852Z,993.8
2023-03-23T07:51:12.539Z,993.9
2023-03-23T07:52:13.700Z,993.9
2023-03-23T07:53:14.600Z,993.9
2023-03-23T07:54:15.646Z,993.9
2023-03-23T07:55:16.612Z,993.9
2023-03-23T07:56:17.651Z,993.9
2023-03-23T07:57:18.646Z,993.9
2023-03-23T07:58:19.732Z,993.9
2023-03-23T07:59:20.596Z,993.9
2023-03-23T08:00:21.728Z,994
2023-03-23T08:01:22.684Z,993.9
2023-03-23T08:02:23.615Z,993.9
2023-03-23T08:03:24.725Z,993.9
2023-03-23T08:04:25.746Z,993.9
2023-03-23T08:05:26.695Z,993.9
2023-03-23T08:06:27.605Z,993.9
2023-03-23T08:07:28.649Z,994
2023-03-23T08:08:29.637Z,994
2023-03-23T08:09:30.647Z,994
2023-03-23T08:10:31.661Z,994
2023-03-23T08:11:32.645Z,994
2023-03-23T08:12:33.600Z,993.9
2023-03-23T08:13:35.042Z,993.9
2023-03-23T08:14:35.657Z,993.8
2023-03-23T08:15:36.690Z,993.8
2023-03-23T08:16:37.665Z,993.8
2023-03-23T08:17:38.649Z,993.8
2023-03-23T08:18:39.715Z,993.8
2023-03-23T08:19:40.792Z,993.8
2023-03-23T08:20:41.665Z,993.7
2023-03-23T08:21:42.659Z,993.7
2023-03-23T08:22:51.381Z,993.7
2023-03-23T08:23:44.681Z,993.7
2023-03-23T08:24:45.633Z,993.7
2023-03-23T08:25:46.651Z,993.7
2023-03-23T08:26:47.664Z,993.7
2023-03-23T08:27:48.694Z,993.5
2023-03-23T08:28:49.756Z,993.5
2023-03-23T08:29:50.639Z,993.6
2023-03-23T08:30:51.715Z,993.6
2023-03-23T08:31:52.695Z,993.6
2023-03-23T08:32:53.714Z,993.7
2023-03-23T08:33:54.672Z,993.7
2023-03-23T08:34:55.661Z,993.8
2023-03-23T08:35:56.670Z,993.8
2023-03-23T08:36:57.626Z,993.7
2023-03-23T08:37:58.751Z,993.7
2023-03-23T08:39:00.096Z,993.8
2023-03-23T08:40:01.781Z,993.8
2023-03-23T08:41:02.680Z,993.7
2023-03-23T08:42:03.658Z,993.7
2023-03-23T08:43:04.733Z,993.8
2023-03-23T08:44:05.667Z,993.8
2023-03-23T08:45:06.696Z,993.9
2023-03-23T08:46:07.685Z,993.9
2023-03-23T08:47:08.677Z,993.9
2023-03-23T08:48:09.750Z,993.9
2023-03-23T08:49:10.740Z,993.8
2023-03-23T08:50:11.717Z,993.8
2023-03-23T08:51:12.700Z,993.8
2023-03-23T08:52:13.634Z,993.9
2023-03-23T08:53:14.680Z,993.8
2023-03-23T08:54:15.619Z,993.7
2023-03-23T08:55:16.675Z,993.8
2023-03-23T08:56:17.705Z,993.8
2023-03-23T08:57:18.694Z,993.8
2023-03-23T08:58:19.746Z,993.8
2023-03-23T08:59:20.662Z,993.9
2023-03-23T09:00:22.068Z,993.9
2023-03-23T09:01:22.734Z,993.9
2023-03-23T09:02:23.688Z,993.9
2023-03-23T09:03:24.751Z,993.9
2023-03-23T09:04:25.690Z,993.9
2023-03-23T09:05:26.685Z,993.9
2023-03-23T09:06:28.886Z,993.8
2023-03-23T09:07:28.649Z,993.8
2023-03-23T09:08:29.683Z,993.8
2023-03-23T09:09:30.715Z,993.9
2023-03-23T09:10:31.708Z,993.8
2023-03-23T09:11:32.656Z,994
2023-03-23T09:12:33.735Z,994
2023-03-23T09:13:34.637Z,994
2023-03-23T09:14:35.677Z,994
2023-03-23T09:15:41.065Z,994
2023-03-23T09:16:37.629Z,994
2023-03-23T09:17:38.707Z,993.9
2023-03-23T09:18:39.755Z,994
2023-03-23T09:19:40.720Z,993.9
2023-03-23T09:20:41.783Z,994
2023-03-23T09:21:42.703Z,994
2023-03-23T09:22:43.720Z,993.9
2023-03-23T09:23:47.702Z,993.2
2023-03-23T09:24:48.721Z,993.7
2023-03-23T09:25:49.666Z,993.9
2023-03-23T09:26:50.688Z,993.9
2023-03-23T09:27:51.711Z,993.9
2023-03-23T09:28:52.711Z,993.9
2023-03-23T09:29:53.719Z,993.9
2023-03-23T09:30:54.678Z,993.9
2023-03-23T09:31:55.677Z,994
2023-03-23T09:32:56.665Z,994
2023-03-23T09:33:57.741Z,994
2023-03-23T09:34:58.849Z,994
2023-03-23T09:36:00.235Z,994
2023-03-23T09:37:01.778Z,994
2023-03-23T09:38:02.698Z,994.1
2023-03-23T09:39:03.693Z,994
2023-03-23T09:40:06.602Z,994
2023-03-23T09:41:05.757Z,994.1
2023-03-23T09:42:06.711Z,994.1
2023-03-23T09:43:07.727Z,994.2
2023-03-23T09:44:08.702Z,994.1
2023-03-23T09:45:09.769Z,994.1
2023-03-23T09:46:10.733Z,994.1
2023-03-23T09:47:11.715Z,994.1
2023-03-23T09:48:12.707Z,994.2
2023-03-23T09:49:13.711Z,994.1
2023-03-23T09:50:14.757Z,994.1
2023-03-23T09:51:15.738Z,994.1
2023-03-23T09:52:16.679Z,994.1
2023-03-23T09:53:18.931Z,994.1
2023-03-23T09:54:18.683Z,994.1
2023-03-23T09:55:19.694Z,994.1
2023-03-23T09:56:20.716Z,994.3
2023-03-23T09:57:21.698Z,994.2
2023-03-23T09:58:22.738Z,994.1
2023-03-23T09:59:23.680Z,994.1
2023-03-23T10:00:24.739Z,994.1
2023-03-23T10:01:25.792Z,994.1
2023-03-23T10:02:26.724Z,994
2023-03-23T10:03:27.689Z,994
2023-03-23T10:04:28.709Z,994.1
2023-03-23T10:05:29.675Z,994
2023-03-23T10:06:30.791Z,994
2023-03-23T10:07:31.686Z,993.9
2023-03-23T10:08:32.798Z,993.9
2023-03-23T10:09:33.683Z,994
2023-03-23T10:10:34.705Z,994
2023-03-23T10:11:35.747Z,994
2023-03-23T10:12:36.763Z,994
2023-03-23T10:13:37.878Z,994
2023-03-23T10:14:38.784Z,994
2023-03-23T10:15:39.848Z,994.1
2023-03-23T10:16:40.717Z,994
2023-03-23T10:17:41.762Z,994
2023-03-23T10:18:42.686Z,994.1
2023-03-23T10:19:43.778Z,994
2023-03-23T10:20:44.717Z,994
2023-03-23T10:21:45.788Z,994.1
2023-03-23T10:22:46.758Z,994.1
2023-03-23T10:23:47.703Z,994
2023-03-23T10:24:48.703Z,994.1
2023-03-23T10:25:49.776Z,994.2
2023-03-23T10:26:50.805Z,994.2
2023-03-23T10:27:51.735Z,994.2
2023-03-23T10:28:52.701Z,994.1
2023-03-23T10:29:53.777Z,994.2
2023-03-23T10:30:54.738Z,994.2
2023-03-23T10:31:55.927Z,994.2
2023-03-23T10:32:57.658Z,994.2
2023-03-23T10:33:58.924Z,994.3
2023-03-23T10:35:00.300Z,994.2
2023-03-23T10:36:01.873Z,994.3
2023-03-23T10:37:02.822Z,994.2
2023-03-23T10:38:03.740Z,994.2
2023-03-23T10:39:04.728Z,994.2
2023-03-23T10:40:05.780Z,993.6
2023-03-23T10:41:06.742Z,994.1
2023-03-23T10:42:07.758Z,994.4
2023-03-23T10:43:08.800Z,994.4
2023-03-23T10:44:09.761Z,994.3
2023-03-23T10:45:10.802Z,994.3
2023-03-23T10:46:13.840Z,994.3
2023-03-23T10:47:12.765Z,994.3
2023-03-23T10:48:13.764Z,994.3
2023-03-23T10:49:14.822Z,994.2
2023-03-23T10:50:15.829Z,994.3
2023-03-23T10:51:16.735Z,994.2
2023-03-23T10:52:17.750Z,994.2
2023-03-23T10:53:18.760Z,994.2
2023-03-23T10:54:19.739Z,994.2
2023-03-23T10:55:20.794Z,994.2
2023-03-23T10:56:21.762Z,994.2
2023-03-23T10:57:22.712Z,994.3
2023-03-23T10:58:23.721Z,994.3
2023-03-23T10:59:24.729Z,994.2
2023-03-23T11:00:25.681Z,994.2
2023-03-23T11:01:26.758Z,994.2
2023-03-23T11:02:29.610Z,994.1
2023-03-23T11:03:28.753Z,994.1
2023-03-23T11:04:29.700Z,994.2
2023-03-23T11:05:30.728Z,994.3
2023-03-23T11:06:31.703Z,994.1
2023-03-23T11:07:32.749Z,994.3
2023-03-23T11:08:33.768Z,994.3
2023-03-23T11:09:34.789Z,994.3
2023-03-23T11:10:35.741Z,994.2
2023-03-23T11:11:36.739Z,994.3
2023-03-23T11:12:37.735Z,994.3
2023-03-23T11:13:38.724Z,994.3
2023-03-23T11:14:39.740Z,994.3
2023-03-23T11:15:40.907Z,994.3
2023-03-23T11:16:41.762Z,994.3
2023-03-23T11:17:42.785Z,994.4
2023-03-23T11:18:43.749Z,994.4
2023-03-23T11:19:45.535Z,994.3
2023-03-23T11:20:45.760Z,994.1
2023-03-23T11:21:46.721Z,994.3
2023-03-23T11:22:47.771Z,994.4
2023-03-23T11:23:50.057Z,994.5
2023-03-23T11:24:49.782Z,994.5
2023-03-23T11:25:50.761Z,994.5
2023-03-23T11:26:58.689Z,994.4
2023-03-23T11:27:52.731Z,994.5
2023-03-23T11:28:53.747Z,994.5
2023-03-23T11:29:58.359Z,994.5
2023-03-23T11:30:55.820Z,994.4
2023-03-23T11:31:56.760Z,994.5
2023-03-23T11:32:57.764Z,994.5
2023-03-23T11:34:05.722Z,994.5
2023-03-23T11:35:10.425Z,994.5
2023-03-23T11:36:00.806Z,994.4
2023-03-23T11:37:01.860Z,994.4
2023-03-23T11:38:02.770Z,994.4
2023-03-23T11:39:03.780Z,994.4
2023-03-23T11:40:04.760Z,994.4
2023-03-23T11:41:05.818Z,994.5
2023-03-23T11:42:09.388Z,994.4
2023-03-23T11:43:07.762Z,994.5
2023-03-23T11:44:08.860Z,994.5
2023-03-23T11:45:09.818Z,994.5
2023-03-23T11:46:10.798Z,994.5
2023-03-23T11:47:11.799Z,994.4
2023-03-23T11:48:12.762Z,994.4
2023-03-23T11:49:23.339Z,994.5
2023-03-23T11:50:14.739Z,994.4
2023-03-23T11:51:15.758Z,994.4
2023-03-23T11:52:16.820Z,994.5
2023-03-23T11:53:17.787Z,994.4
2023-03-23T11:54:18.838Z,994.4
2023-03-23T11:55:19.782Z,994.5
2023-03-23T11:56:20.808Z,994.4
2023-03-23T11:57:21.820Z,994.4
2023-03-23T11:58:22.722Z,994.4
2023-03-23T11:59:23.857Z,994.6
2023-03-23T12:00:24.786Z,994.5
2023-03-23T12:01:25.766Z,994.5
2023-03-23T12:02:26.798Z,994.5
2023-03-23T12:03:27.858Z,994.6
2023-03-23T12:04:28.874Z,994.6
2023-03-23T12:05:29.806Z,994.6
2023-03-23T12:06:30.719Z,994.5
2023-03-23T12:07:31.785Z,994.6
2023-03-23T12:08:32.853Z,994.5
2023-03-23T12:09:33.841Z,994.6
2023-03-23T12:10:35.618Z,994
2023-03-23T12:11:35.832Z,994.3
2023-03-23T12:12:36.747Z,994.4
2023-03-23T12:13:38.701Z,994.5
2023-03-23T12:14:38.855Z,994.5
2023-03-23T12:15:39.816Z,994.5
2023-03-23T12:16:40.809Z,994.5
2023-03-23T12:17:41.796Z,994.5
2023-03-23T12:18:42.816Z,994.5
2023-03-23T12:19:43.736Z,994.5
2023-03-23T12:21:45.836Z,994.5
2023-03-23T12:22:46.815Z,994.5
2023-03-23T12:23:47.820Z,994.5
2023-03-23T12:24:48.748Z,994.5
2023-03-23T12:25:49.806Z,994.5
2023-03-23T12:26:50.881Z,994.5
2023-03-23T12:27:51.777Z,994.5
2023-03-23T12:28:52.804Z,994.5
2023-03-23T12:29:53.787Z,994.5
2023-03-23T12:30:55.705Z,994.5
2023-03-23T12:31:55.816Z,994.5
2023-03-23T12:32:56.818Z,994.5
2023-03-23T12:33:57.832Z,994.5
2023-03-23T12:34:58.890Z,994.5
2023-03-23T12:35:59.822Z,994.5
2023-03-23T12:37:00.801Z,994.5
2023-03-23T12:38:01.858Z,994.5
2023-03-23T12:39:02.858Z,994.5
2023-03-23T12:40:03.800Z,994.4
2023-03-23T12:41:04.796Z,994.5
2023-03-23T12:42:05.790Z,994.5
2023-03-23T12:43:06.809Z,994.5
2023-03-23T12:44:07.880Z,994.4
2023-03-23T12:45:08.839Z,994.5
2023-03-23T12:46:09.853Z,994.5
2023-03-23T12:47:10.806Z,994.5
2023-03-23T12:48:11.785Z,994.5
2023-03-23T12:49:12.828Z,994.4
2023-03-23T12:50:13.790Z,994.5
2023-03-23T12:51:14.831Z,994.5
2023-03-23T12:52:15.799Z,994.5
2023-03-23T12:53:16.790Z,994.5
2023-03-23T12:54:17.793Z,994.5
2023-03-23T12:55:18.831Z,994.5
2023-03-23T12:56:19.809Z,994.5
2023-03-23T12:57:20.824Z,994.4
2023-03-23T12:58:21.821Z,994.5
2023-03-23T12:59:22.818Z,994.5
2023-03-23T13:00:23.802Z,994.5
2023-03-23T13:01:24.767Z,994.5
2023-03-23T13:02:25.880Z,994.4
2023-03-23T13:03:26.826Z,994.4
2023-03-23T13:04:27.780Z,994.4
2023-03-23T13:05:28.842Z,994.5
2023-03-23T13:06:32.378Z,994.4
2023-03-23T13:07:30.802Z,994.4
2023-03-23T13:08:31.822Z,994.4
2023-03-23T13:09:32.792Z,994.4
2023-03-23T13:10:33.859Z,994.4
2023-03-23T13:11:34.783Z,994.4
2023-03-23T13:12:35.830Z,994.4